Time;durP1;ratioP1;P1;durP2;ratioP2;P2;SDS_P1;SDS_P2;PMS_P1;PMS_P2;Temp;Humidity;BMP_temperature;BMP_pressure;BME280_temperature;BME280_humidity;BME280_pressure;Samples;Min_cycle;Max_cycle;Signal;HPM_P1;HPM_P2
2021/11/09 00:00:45;;;;;;;0.73;0.73;;;;;;;;;;5056609;28;20043;-85
2021/11/09 00:03:13;;;;;;;0.10;0.10;;;;;;;;;;5058999;28;20055;-86
2021/11/09 00:05:53;;;;;;;0.20;0.20;;;;;;;;;;5058800;28;20045;-85
2021/11/09 00:08:22;;;;;;;0.00;0.00;;;;;;;;;;5058370;28;20056;-84
2021/11/09 00:10:49;;;;;;;0.80;0.80;;;;;;;;;;5059512;28;20033;-86
2021/11/09 00:13:15;;;;;;;0.10;0.10;;;;;;;;;;5055804;28;20134;-84
2021/11/09 00:15:41;;;;;;;0.03;0.03;;;;;;;;;;5056907;28;20060;-86
2021/11/09 00:18:08;;;;;;;0.20;0.20;;;;;;;;;;5053510;28;20033;-85
2021/11/09 00:20:34;;;;;;;;;;;;;;;;;;5048575;28;20287;-86
2021/11/09 00:23:01;;;;;;;0.10;0.10;;;;;;;;;;5060023;28;19982;-86
2021/11/09 00:25:27;;;;;;;0.20;0.20;;;;;;;;;;5062682;28;20036;-85
2021/11/09 00:27:54;;;;;;;0.17;0.17;;;;;;;;;;5040548;28;20036;-85
2021/11/09 00:30:21;;;;;;;0.15;0.15;;;;;;;;;;5058942;28;20720;-85
2021/11/09 00:32:47;;;;;;;0.10;0.10;;;;;;;;;;5058862;28;20036;-85
2021/11/09 00:35:14;;;;;;;0.00;0.00;;;;;;;;;;5060570;28;20025;-85
2021/11/09 00:37:41;;;;;;;0.30;0.30;;;;;;;;;;5058618;28;20024;-85
2021/11/09 00:40:08;;;;;;;0.45;0.45;;;;;;;;;;5056569;28;20455;-85
2021/11/09 00:42:34;;;;;;;1.60;1.10;;;;;;;;;;5053302;28;20405;-85
2021/11/09 00:45:00;;;;;;;0.08;0.08;;;;;;;;;;5060332;28;20064;-86
2021/11/09 00:47:26;;;;;;;0.13;0.13;;;;;;;;;;5059547;28;20029;-85
2021/11/09 00:49:53;;;;;;;0.00;0.00;;;;;;;;;;5059651;28;20033;-85
2021/11/09 00:52:19;;;;;;;0.13;0.13;;;;;;;;;;5058653;28;20024;-85
2021/11/09 00:54:45;;;;;;;0.55;0.55;;;;;;;;;;5059308;28;20917;-85
2021/11/09 00:57:11;;;;;;;0.25;0.25;;;;;;;;;;5039999;28;20067;-85
2021/11/09 00:59:37;;;;;;;0.10;0.10;;;;;;;;;;5056766;28;20394;-84
2021/11/09 01:02:03;;;;;;;0.38;0.17;;;;;;;;;;5040461;28;20035;-84
2021/11/09 01:04:30;;;;;;;0.00;0.00;;;;;;;;;;5060675;28;20090;-85
2021/11/09 01:06:56;;;;;;;1.65;0.45;;;;;;;;;;5055318;28;20560;-86
2021/11/09 01:09:22;;;;;;;1.20;1.15;;;;;;;;;;5057163;28;20595;-86
2021/11/09 01:11:49;;;;;;;0.38;0.38;;;;;;;;;;5059686;28;20032;-85
2021/11/09 01:14:15;;;;;;;0.10;0.10;;;;;;;;;;5057028;28;20087;-85
2021/11/09 01:16:42;;;;;;;0.00;0.00;;;;;;;;;;5057736;28;20098;-86
2021/11/09 01:19:09;;;;;;;0.10;0.10;;;;;;;;;;5058647;28;20044;-85
2021/11/09 01:21:35;;;;;;;;;;;;;;;;;;5058969;28;20394;-86
2021/11/09 01:24:01;;;;;;;0.13;0.13;;;;;;;;;;5056722;28;20281;-85
2021/11/09 01:26:28;;;;;;;0.10;0.10;;;;;;;;;;5059326;28;20508;-85
2021/11/09 01:28:56;;;;;;;0.30;0.30;;;;;;;;;;5045873;28;20615;-85
2021/11/09 01:31:22;;;;;;;0.03;0.03;;;;;;;;;;5057476;28;20199;-85
2021/11/09 01:33:49;;;;;;;0.30;0.30;;;;;;;;;;5059287;28;20082;-85
2021/11/09 01:36:15;;;;;;;0.10;0.10;;;;;;;;;;5058859;28;20028;-84
2021/11/09 01:38:41;;;;;;;0.00;0.00;;;;;;;;;;5058970;28;20043;-85
2021/11/09 01:41:08;;;;;;;0.70;0.70;;;;;;;;;;5047662;28;20032;-85
2021/11/09 01:43:35;;;;;;;0.00;0.00;;;;;;;;;;5058420;28;20082;-85
2021/11/09 01:46:01;;;;;;;7.47;2.63;;;;;;;;;;5057115;28;20044;-85
2021/11/09 01:48:28;;;;;;;1.60;1.50;;;;;;;;;;5059709;28;20119;-85
2021/11/09 01:50:56;;;;;;;0.47;0.47;;;;;;;;;;5055218;28;20036;-84
2021/11/09 01:53:23;;;;;;;0.40;0.40;;;;;;;;;;5057485;28;20043;-84
2021/11/09 01:55:49;;;;;;;;;;;;;;;;;;5058406;28;20033;-84
2021/11/09 01:58:17;;;;;;;0.10;0.10;;;;;;;;;;5059999;28;19908;-84
2021/11/09 02:00:45;;;;;;;0.17;0.17;;;;;;;;;;5055718;28;20109;-85
2021/11/09 02:03:12;;;;;;;0.25;0.25;;;;;;;;;;5056907;28;20965;-84
2021/11/09 02:05:38;;;;;;;31.13;0.80;;;;;;;;;;5052812;28;20065;-85
2021/11/09 02:08:05;;;;;;;0.30;0.30;;;;;;;;;;5058414;28;20059;-85
2021/11/09 02:10:33;;;;;;;0.82;0.80;;;;;;;;;;5052214;28;20028;-85
2021/11/09 02:13:00;;;;;;;0.25;0.25;;;;;;;;;;5055969;28;20041;-85
2021/11/09 02:15:27;;;;;;;0.15;0.15;;;;;;;;;;5058532;28;20025;-85
2021/11/09 02:17:55;;;;;;;0.90;0.90;;;;;;;;;;5060521;28;20047;-84
2021/11/09 02:20:22;;;;;;;0.60;0.50;;;;;;;;;;5045906;28;20628;-85
2021/11/09 02:22:49;;;;;;;0.43;0.43;;;;;;;;;;5065566;28;20078;-84
2021/11/09 02:25:16;;;;;;;0.20;0.20;;;;;;;;;;5058594;28;20044;-85
2021/11/09 02:27:42;;;;;;;;;;;;;;;;;;5062371;28;20063;-85
2021/11/09 02:30:09;;;;;;;0.90;0.70;;;;;;;;;;5062548;28;20608;-84
2021/11/09 02:32:35;;;;;;;6.60;2.17;;;;;;;;;;5045616;28;20124;-85
2021/11/09 02:35:02;;;;;;;0.15;0.15;;;;;;;;;;5063118;28;20500;-85
2021/11/09 02:37:28;;;;;;;6.80;4.07;;;;;;;;;;5058987;28;20024;-85
2021/11/09 02:39:54;;;;;;;0.17;0.17;;;;;;;;;;5058091;28;20773;-85
2021/11/09 02:42:20;;;;;;;3.20;1.65;;;;;;;;;;5058549;28;20028;-85
2021/11/09 02:45:01;;;;;;;0.45;0.45;;;;;;;;;;5057957;28;20404;-85
2021/11/09 02:47:30;;;;;;;0.10;0.10;;;;;;;;;;5060670;28;20040;-85
2021/11/09 02:50:10;;;;;;;0.35;0.35;;;;;;;;;;5053282;28;20039;-85
2021/11/09 02:52:45;;;;;;;0.10;0.10;;;;;;;;;;5062483;28;20028;-84
2021/11/09 02:55:11;;;;;;;0.10;0.10;;;;;;;;;;5058558;28;20039;-84
2021/11/09 02:57:46;;;;;;;1.00;1.00;;;;;;;;;;5058139;28;20024;-85
2021/11/09 03:03:28;;;;;;;1.15;1.05;;;;;;;;;;4999963;28;20490;-85
2021/11/09 03:06:25;;;;;;;0.10;0.10;;;;;;;;;;5000431;28;20054;-85
2021/11/09 03:08:46;;;;;;;1.85;1.15;;;;;;;;;;5000460;28;20057;-86
2021/11/09 03:11:12;;;;;;;0.30;0.30;;;;;;;;;;5001246;28;20116;-84
2021/11/09 03:13:39;;;;;;;1.63;0.90;;;;;;;;;;5002144;28;20034;-85
2021/11/09 03:16:09;;;;;;;0.25;0.25;;;;;;;;;;5000468;28;20408;-84
2021/11/09 03:18:47;;;;;;;1.45;1.20;;;;;;;;;;5012967;28;20042;-84
2021/11/09 03:45:31;;;;;;;0.20;0.20;;;;;;;;;;5055505;28;20780;-84
2021/11/09 03:48:04;;;;;;;0.30;0.30;;;;;;;;;;5043954;28;20515;-83
2021/11/09 03:50:30;;;;;;;1.92;1.80;;;;;;;;;;5057097;28;20040;-83
2021/11/09 03:53:03;;;;;;;0.10;0.10;;;;;;;;;;5051513;28;20056;-83
2021/11/09 03:58:43;;;;;;;0.10;0.10;;;;;;;;;;5056363;28;20051;-84
2021/11/09 04:00:56;;;;;;;0.20;0.20;;;;;;;;;;5054750;28;20290;-83
2021/11/09 04:05:51;;;;;;;0.28;0.28;;;;;;;;;;5057372;28;19974;-83
2021/11/09 04:08:42;;;;;;;0.20;0.20;;;;;;;;;;5059296;28;20041;-84
2021/11/09 04:13:42;;;;;;;0.22;0.22;;;;;;;;;;5059516;28;20066;-84
2021/11/09 04:24:32;;;;;;;0.10;0.10;;;;;;;;;;5059231;28;20538;-84
2021/11/09 05:09:30;;;;;;;0.30;0.30;;;;;;;;;;4955994;28;20058;-84
2021/11/09 05:11:56;;;;;;;0.35;0.35;;;;;;;;;;4952432;28;20117;-84
2021/11/09 05:14:22;;;;;;;0.10;0.10;;;;;;;;;;4951875;28;20042;-84
2021/11/09 05:16:48;;;;;;;0.90;0.85;;;;;;;;;;4958500;28;20031;-83
2021/11/09 05:19:14;;;;;;;0.10;0.10;;;;;;;;;;4953163;28;20035;-84
2021/11/09 05:21:40;;;;;;;0.23;0.23;;;;;;;;;;4959619;28;20452;-83
2021/11/09 05:24:06;;;;;;;0.20;0.20;;;;;;;;;;4962036;28;20058;-84
2021/11/09 05:26:33;;;;;;;0.10;0.10;;;;;;;;;;4963050;28;20045;-84
2021/11/09 05:28:59;;;;;;;0.08;0.08;;;;;;;;;;4981079;28;20270;-84
2021/11/09 05:31:25;;;;;;;8.68;0.98;;;;;;;;;;4982265;28;20049;-84
2021/11/09 05:33:54;;;;;;;0.97;0.87;;;;;;;;;;4988636;28;20037;-83
2021/11/09 05:36:20;;;;;;;0.20;0.20;;;;;;;;;;4987280;28;20031;-84
2021/11/09 05:38:54;;;;;;;0.10;0.10;;;;;;;;;;4979951;28;20712;-85
2021/11/09 05:41:22;;;;;;;0.20;0.20;;;;;;;;;;5060069;28;20074;-83
2021/11/09 05:43:48;;;;;;;0.13;0.13;;;;;;;;;;5058713;28;20161;-83
2021/11/09 05:46:15;;;;;;;3.33;1.23;;;;;;;;;;5047771;28;20060;-83
2021/11/09 05:48:41;;;;;;;0.10;0.10;;;;;;;;;;5054566;28;20032;-85
2021/11/09 05:51:08;;;;;;;1.00;0.98;;;;;;;;;;5057911;28;20294;-83
2021/11/09 05:53:35;;;;;;;0.10;0.10;;;;;;;;;;5061664;28;20501;-83
2021/11/09 05:56:02;;;;;;;0.52;0.52;;;;;;;;;;5064342;28;20058;-84
2021/11/09 05:58:28;;;;;;;0.10;0.10;;;;;;;;;;5048412;28;20033;-85
2021/11/09 06:00:54;;;;;;;0.20;0.20;;;;;;;;;;5062074;28;20038;-88
2021/11/09 06:03:23;;;;;;;0.43;0.43;;;;;;;;;;5063066;28;20153;-87
2021/11/09 06:05:49;;;;;;;0.10;0.10;;;;;;;;;;5063118;28;20506;-87
2021/11/09 06:08:15;;;;;;;1.08;0.98;;;;;;;;;;5063245;28;20054;-87
2021/11/09 06:10:41;;;;;;;0.10;0.10;;;;;;;;;;5051477;28;20029;-87
2021/11/09 06:13:07;;;;;;;0.10;0.10;;;;;;;;;;5052963;28;20024;-85
2021/11/09 06:15:33;;;;;;;0.50;0.50;;;;;;;;;;5058060;28;20028;-84
2021/11/09 06:17:59;;;;;;;0.10;0.10;;;;;;;;;;5049649;28;20032;-84
2021/11/09 06:20:25;;;;;;;0.10;0.10;;;;;;;;;;5050421;28;20039;-85
2021/11/09 06:22:51;;;;;;;0.13;0.13;;;;;;;;;;5037395;28;20029;-85
2021/11/09 06:25:22;;;;;;;0.40;0.40;;;;;;;;;;5057007;28;20047;-85
2021/11/09 06:27:48;;;;;;;0.10;0.10;;;;;;;;;;5056508;28;20041;-87
2021/11/09 06:30:14;;;;;;;0.10;0.10;;;;;;;;;;5060194;28;20515;-88
2021/11/09 06:32:40;;;;;;;12.53;1.53;;;;;;;;;;5057918;28;20032;-83
2021/11/09 06:35:06;;;;;;;0.20;0.20;;;;;;;;;;5043137;28;20455;-84
2021/11/09 06:37:33;;;;;;;0.10;0.10;;;;;;;;;;5047962;28;20410;-85
2021/11/09 06:40:00;;;;;;;0.65;0.65;;;;;;;;;;5057663;28;20417;-84
2021/11/09 06:42:26;;;;;;;0.10;0.10;;;;;;;;;;5059354;28;20029;-84
2021/11/09 06:44:52;;;;;;;0.10;0.10;;;;;;;;;;5053126;28;20083;-84
2021/11/09 06:47:18;;;;;;;0.73;0.73;;;;;;;;;;5063944;28;20106;-85
2021/11/09 06:49:44;;;;;;;0.30;0.30;;;;;;;;;;5043317;28;20802;-85
2021/11/09 06:52:13;;;;;;;0.10;0.10;;;;;;;;;;5058909;28;20862;-86
2021/11/09 06:54:39;;;;;;;0.10;0.10;;;;;;;;;;5054926;28;20029;-86
2021/11/09 06:57:05;;;;;;;0.20;0.20;;;;;;;;;;5049873;28;20068;-85
2021/11/09 06:59:31;;;;;;;0.30;0.30;;;;;;;;;;5061223;28;20035;-84
2021/11/09 07:01:57;;;;;;;0.10;0.10;;;;;;;;;;5050963;28;20033;-84
2021/11/09 07:04:23;;;;;;;0.10;0.10;;;;;;;;;;5060842;28;20032;-84
2021/11/09 07:06:49;;;;;;;0.23;0.23;;;;;;;;;;5058702;28;20074;-84
2021/11/09 07:09:16;;;;;;;0.10;0.10;;;;;;;;;;5059551;28;20378;-84
2021/11/09 07:11:42;;;;;;;0.65;0.65;;;;;;;;;;5050500;28;20044;-85
2021/11/09 07:14:08;;;;;;;0.10;0.10;;;;;;;;;;5063235;28;20834;-84
2021/11/09 07:16:35;;;;;;;0.10;0.10;;;;;;;;;;5050190;28;20283;-85
2021/11/09 07:19:03;;;;;;;0.00;0.00;;;;;;;;;;5037068;28;20032;-85
2021/11/09 07:21:30;;;;;;;0.10;0.10;;;;;;;;;;5050779;28;20051;-84
2021/11/09 07:23:56;;;;;;;0.30;0.30;;;;;;;;;;5062848;28;20044;-84
2021/11/09 07:26:22;;;;;;;0.10;0.10;;;;;;;;;;5062603;28;20068;-85
2021/11/09 07:28:49;;;;;;;0.10;0.10;;;;;;;;;;5045402;28;20121;-86
2021/11/09 07:31:16;;;;;;;0.28;0.28;;;;;;;;;;5050724;28;20283;-86
2021/11/09 07:33:43;;;;;;;0.20;0.20;;;;;;;;;;5054317;28;20048;-85
2021/11/09 07:36:09;;;;;;;0.10;0.10;;;;;;;;;;5058881;28;20044;-85
2021/11/09 07:38:35;;;;;;;0.10;0.10;;;;;;;;;;5060608;28;20032;-85
2021/11/09 07:41:01;;;;;;;0.10;0.10;;;;;;;;;;5061447;28;20398;-85
2021/11/09 07:43:27;;;;;;;0.40;0.40;;;;;;;;;;5058457;28;20412;-85
2021/11/09 07:45:53;;;;;;;0.82;0.82;;;;;;;;;;5053334;28;20041;-84
2021/11/09 07:48:20;;;;;;;0.10;0.10;;;;;;;;;;5050827;28;20020;-85
2021/11/09 07:50:46;;;;;;;0.10;0.10;;;;;;;;;;5061807;28;20041;-87
2021/11/09 07:53:18;;;;;;;1.17;1.17;;;;;;;;;;5051486;28;20031;-86
2021/11/09 07:55:51;;;;;;;0.10;0.10;;;;;;;;;;5060299;28;20032;-86
2021/11/09 07:58:31;;;;;;;0.17;0.17;;;;;;;;;;5049756;28;20037;-86
2021/11/09 08:01:07;;;;;;;0.20;0.20;;;;;;;;;;5056130;28;20048;-87
2021/11/09 08:03:42;;;;;;;0.17;0.17;;;;;;;;;;5058002;28;20056;-87
2021/11/09 08:06:19;;;;;;;0.10;0.10;;;;;;;;;;5052128;28;20160;-87
2021/11/09 08:09:31;;;;;;;0.10;0.10;;;;;;;;;;5060478;28;20782;-87
2021/11/09 08:11:35;;;;;;;0.20;0.20;;;;;;;;;;5038935;28;20032;-87
2021/11/09 08:14:01;;;;;;;0.57;0.57;;;;;;;;;;5047170;28;20095;-87
2021/11/09 08:16:27;;;;;;;0.10;0.10;;;;;;;;;;5049028;28;20017;-87
2021/11/09 08:18:53;;;;;;;0.45;0.45;;;;;;;;;;5049244;28;20571;-87
2021/11/09 08:21:19;;;;;;;0.10;0.10;;;;;;;;;;5049465;28;20039;-86
2021/11/09 08:23:49;;;;;;;0.30;0.30;;;;;;;;;;5048807;28;20310;-87
2021/11/09 08:26:19;;;;;;;0.20;0.20;;;;;;;;;;5027166;28;20048;-88
2021/11/09 08:28:45;;;;;;;0.10;0.10;;;;;;;;;;5060912;28;20528;-87
2021/11/09 08:31:13;;;;;;;0.10;0.10;;;;;;;;;;5046437;28;20041;-88
2021/11/09 08:33:40;;;;;;;0.15;0.15;;;;;;;;;;5053471;28;20032;-86
2021/11/09 08:36:13;;;;;;;0.10;0.10;;;;;;;;;;5058050;28;20460;-88
2021/11/09 08:38:39;;;;;;;15.20;0.50;;;;;;;;;;5045910;28;20037;-87
2021/11/09 08:41:06;;;;;;;0.17;0.17;;;;;;;;;;5060047;28;20032;-86
2021/11/09 08:43:35;;;;;;;0.20;0.20;;;;;;;;;;5048645;28;20025;-88
2021/11/09 08:46:07;;;;;;;0.15;0.15;;;;;;;;;;5048401;28;20056;-88
2021/11/09 08:48:38;;;;;;;0.35;0.35;;;;;;;;;;5049162;28;20029;-87
2021/11/09 08:51:08;;;;;;;1.55;0.45;;;;;;;;;;5045990;28;20106;-87
2021/11/09 08:53:40;;;;;;;0.30;0.30;;;;;;;;;;5059226;28;20040;-87
2021/11/09 09:06:41;;;;;;;0.10;0.10;;;;;;;;;;5048814;28;20127;-86
2021/11/09 09:09:07;;;;;;;0.10;0.10;;;;;;;;;;5050860;28;20090;-87
2021/11/09 09:11:33;;;;;;;0.55;0.55;;;;;;;;;;5058984;28;20051;-87
2021/11/09 09:14:00;;;;;;;0.40;0.40;;;;;;;;;;5059865;28;20032;-86
2021/11/09 09:16:26;;;;;;;0.30;0.30;;;;;;;;;;5047771;28;20068;-85
2021/11/09 09:18:54;;;;;;;0.35;0.35;;;;;;;;;;5048564;28;20068;-85
2021/11/09 09:21:30;;;;;;;0.20;0.20;;;;;;;;;;5049734;28;20849;-86
2021/11/09 09:24:01;;;;;;;0.88;0.68;;;;;;;;;;5056624;28;20040;-86
2021/11/09 09:26:43;;;;;;;0.10;0.10;;;;;;;;;;5059093;28;20067;-86
2021/11/09 09:56:20;;;;;;;0.75;0.38;;;;;;;;;;5019216;28;20034;-87
2021/11/09 09:58:47;;;;;;;0.10;0.10;;;;;;;;;;4999896;28;20071;-86
2021/11/09 10:01:13;;;;;;;;;;;;;;;;;;5019620;28;20056;-86
2021/11/09 10:03:40;;;;;;;0.15;0.15;;;;;;;;;;5019439;28;20569;-87
2021/11/09 10:06:08;;;;;;;0.40;0.40;;;;;;;;;;5019720;28;20057;-86
2021/11/09 10:08:47;;;;;;;0.10;0.10;;;;;;;;;;5019317;28;20619;-87
2021/11/09 10:11:31;;;;;;;0.10;0.10;;;;;;;;;;5018906;28;20033;-87
2021/11/09 10:13:57;;;;;;;0.10;0.10;;;;;;;;;;5029699;28;20060;-87
2021/11/09 10:16:23;;;;;;;0.10;0.10;;;;;;;;;;5057749;28;20485;-86
2021/11/09 10:18:49;;;;;;;1.20;0.57;;;;;;;;;;5056738;28;20119;-86
2021/11/09 10:21:16;;;;;;;0.32;0.32;;;;;;;;;;5056032;28;20115;-87
2021/11/09 10:23:42;;;;;;;0.10;0.10;;;;;;;;;;5059377;28;20760;-87
2021/11/09 10:26:18;;;;;;;0.43;0.43;;;;;;;;;;5044325;28;20048;-86
2021/11/09 10:28:44;;;;;;;;;;;;;;;;;;5059292;28;20409;-86
2021/11/09 10:31:12;;;;;;;0.10;0.10;;;;;;;;;;5055939;28;19908;-87
2021/11/09 10:33:41;;;;;;;6.25;1.40;;;;;;;;;;5055766;28;20038;-87
2021/11/09 10:36:39;;;;;;;0.20;0.20;;;;;;;;;;5056105;28;20032;-87
2021/11/09 10:39:15;;;;;;;0.10;0.10;;;;;;;;;;4978929;28;20129;-86
2021/11/09 10:41:41;;;;;;;0.35;0.35;;;;;;;;;;4981896;28;20530;-87
2021/11/09 10:44:09;;;;;;;1.03;0.73;;;;;;;;;;4982211;28;20035;-86
2021/11/09 10:46:35;;;;;;;0.47;0.30;;;;;;;;;;4984176;28;20049;-86
2021/11/09 10:49:03;;;;;;;0.45;0.45;;;;;;;;;;4982521;28;20169;-86
2021/11/09 10:51:47;;;;;;;0.90;0.52;;;;;;;;;;4981662;28;20034;-86
2021/11/09 10:54:13;;;;;;;0.10;0.10;;;;;;;;;;4982286;28;20109;-87
2021/11/09 10:56:56;;;;;;;0.98;0.57;;;;;;;;;;4982386;28;20034;-87
2021/11/09 10:59:46;;;;;;;0.30;0.30;;;;;;;;;;4967392;28;20094;-86
2021/11/09 11:05:22;;;;;;;0.10;0.10;;;;;;;;;;4980847;28;20054;-87
2021/11/09 11:08:00;;;;;;;1.42;0.90;;;;;;;;;;4980217;28;20053;-87
2021/11/09 11:10:35;;;;;;;0.40;0.40;;;;;;;;;;4983306;28;20065;-86
2021/11/09 11:13:17;;;;;;;0.10;0.10;;;;;;;;;;4981694;28;20499;-87
2021/11/09 11:16:03;;;;;;;0.32;0.32;;;;;;;;;;5033156;28;20055;-87
2021/11/09 11:18:34;;;;;;;0.28;0.28;;;;;;;;;;5032450;28;20033;-87
2021/11/09 11:21:00;;;;;;;0.40;0.40;;;;;;;;;;5038843;28;20095;-86
2021/11/09 11:23:28;;;;;;;0.28;0.28;;;;;;;;;;5041796;28;20029;-86
2021/11/09 11:25:54;;;;;;;0.20;0.20;;;;;;;;;;5041852;28;20139;-86
2021/11/09 11:28:20;;;;;;;0.25;0.25;;;;;;;;;;5039982;28;20021;-86
2021/11/09 11:30:47;;;;;;;0.28;0.28;;;;;;;;;;5039122;28;20037;-86
2021/11/09 11:33:13;;;;;;;0.20;0.20;;;;;;;;;;5039794;28;20082;-87
2021/11/09 11:35:39;;;;;;;0.90;0.90;;;;;;;;;;5053076;28;20036;-86
2021/11/09 11:38:05;;;;;;;0.63;0.63;;;;;;;;;;5042026;28;20570;-86
2021/11/09 11:40:32;;;;;;;0.38;0.38;;;;;;;;;;5029459;28;20037;-86
2021/11/09 11:42:58;;;;;;;0.40;0.40;;;;;;;;;;5035437;28;20581;-87
2021/11/09 11:45:24;;;;;;;0.73;0.73;;;;;;;;;;5037837;28;20516;-86
2021/11/09 11:48:03;;;;;;;0.10;0.10;;;;;;;;;;5037985;28;20083;-86
2021/11/09 11:50:37;;;;;;;0.10;0.10;;;;;;;;;;5025325;28;21108;-87
2021/11/09 11:53:04;;;;;;;0.45;0.45;;;;;;;;;;5040701;28;20115;-87
2021/11/09 11:55:30;;;;;;;0.20;0.20;;;;;;;;;;5028811;28;20086;-86
2021/11/09 11:58:13;;;;;;;0.10;0.10;;;;;;;;;;5034980;28;20086;-86
2021/11/09 12:00:45;;;;;;;0.60;0.60;;;;;;;;;;5034487;28;20021;-87
2021/11/09 12:03:20;;;;;;;0.10;0.10;;;;;;;;;;5040899;28;20044;-88
2021/11/09 12:05:48;;;;;;;0.47;0.47;;;;;;;;;;5058576;28;20059;-86
2021/11/09 12:08:15;;;;;;;0.10;0.10;;;;;;;;;;5062065;28;20634;-86
2021/11/09 12:10:47;;;;;;;0.40;0.40;;;;;;;;;;5060000;28;20416;-87
2021/11/09 12:13:14;;;;;;;0.25;0.25;;;;;;;;;;5046532;28;20485;-87
2021/11/09 12:15:40;;;;;;;;;;;;;;;;;;5053317;28;20043;-87
2021/11/09 12:18:26;;;;;;;0.13;0.13;;;;;;;;;;5057336;28;19912;-86
2021/11/09 12:20:52;;;;;;;0.10;0.10;;;;;;;;;;5040733;28;20056;-87
2021/11/09 12:23:18;;;;;;;0.57;0.57;;;;;;;;;;5061936;28;20855;-87
2021/11/09 12:25:45;;;;;;;0.30;0.30;;;;;;;;;;5059037;28;20040;-87
2021/11/09 12:28:11;;;;;;;;;;;;;;;;;;5058225;28;20044;-86
2021/11/09 12:30:45;;;;;;;0.25;0.25;;;;;;;;;;5057399;28;19908;-86
2021/11/09 12:33:14;;;;;;;0.35;0.35;;;;;;;;;;5055308;28;20064;-87
2021/11/09 12:35:41;;;;;;;2.83;0.57;;;;;;;;;;5058931;28;20112;-86
2021/11/09 12:38:07;;;;;;;;;;;;;;;;;;5061087;28;20028;-86
2021/11/09 12:40:37;;;;;;;0.40;0.40;;;;;;;;;;5059660;28;20716;-87
2021/11/09 12:43:17;;;;;;;0.75;0.45;;;;;;;;;;5057511;28;20028;-86
2021/11/09 12:45:45;;;;;;;0.17;0.17;;;;;;;;;;5057293;28;20060;-86
2021/11/09 12:48:13;;;;;;;0.22;0.22;;;;;;;;;;5056864;28;20497;-87
2021/11/09 12:50:45;;;;;;;0.20;0.20;;;;;;;;;;5060905;28;20060;-87
2021/11/09 12:53:12;;;;;;;0.80;0.40;;;;;;;;;;5045677;28;20493;-87
2021/11/09 12:55:39;;;;;;;0.15;0.15;;;;;;;;;;5059247;28;20020;-86
2021/11/09 12:58:14;;;;;;;0.10;0.10;;;;;;;;;;5057478;28;20501;-87
2021/11/09 13:00:44;;;;;;;0.10;0.10;;;;;;;;;;5051055;28;20502;-86
2021/11/09 13:03:23;;;;;;;0.17;0.17;;;;;;;;;;5051681;28;20059;-87
2021/11/09 13:06:00;;;;;;;0.10;0.10;;;;;;;;;;5056962;28;20049;-86
2021/11/09 13:08:37;;;;;;;0.30;0.30;;;;;;;;;;5045793;28;20501;-85
2021/11/09 13:11:05;;;;;;;0.15;0.15;;;;;;;;;;5059817;28;20485;-87
2021/11/09 13:13:31;;;;;;;0.20;0.20;;;;;;;;;;5048768;28;20077;-86
2021/11/09 13:15:58;;;;;;;1.08;1.08;;;;;;;;;;5048314;28;20029;-86
2021/11/09 13:18:31;;;;;;;0.10;0.10;;;;;;;;;;5033648;28;20020;-87
2021/11/09 13:21:05;;;;;;;0.55;0.55;;;;;;;;;;5057233;28;20025;-85
2021/11/09 13:23:31;;;;;;;1.35;0.55;;;;;;;;;;5043158;28;20028;-88
2021/11/09 13:25:59;;;;;;;0.15;0.15;;;;;;;;;;5059700;28;20079;-87
2021/11/09 13:28:33;;;;;;;0.52;0.32;;;;;;;;;;5058166;28;20039;-85
2021/11/09 13:31:07;;;;;;;0.57;0.57;;;;;;;;;;5034727;28;20489;-86
2021/11/09 13:33:36;;;;;;;0.20;0.20;;;;;;;;;;5050877;28;20085;-86
2021/11/09 13:36:03;;;;;;;0.10;0.10;;;;;;;;;;5056464;28;20041;-86
2021/11/09 13:38:40;;;;;;;0.15;0.15;;;;;;;;;;5059879;28;20036;-88
2021/11/09 13:41:08;;;;;;;1.25;1.10;;;;;;;;;;5059775;28;20115;-87
2021/11/09 13:43:34;;;;;;;1.45;0.95;;;;;;;;;;5059213;28;20493;-86
2021/11/09 13:46:02;;;;;;;0.55;0.55;;;;;;;;;;5055935;28;20040;-86
2021/11/09 13:48:29;;;;;;;0.30;0.30;;;;;;;;;;5056617;28;20120;-87
2021/11/09 13:50:55;;;;;;;;;;;;;;;;;;5057220;28;20453;-87
2021/11/09 13:53:23;;;;;;;0.30;0.30;;;;;;;;;;5061457;28;19923;-87
2021/11/09 13:55:50;;;;;;;0.10;0.10;;;;;;;;;;5059092;28;20032;-87
2021/11/09 13:58:17;;;;;;;0.13;0.13;;;;;;;;;;5048512;28;20036;-86
2021/11/09 14:00:54;;;;;;;0.43;0.43;;;;;;;;;;5051972;28;20086;-86
2021/11/09 14:16:37;;;;;;;0.10;0.10;;;;;;;;;;5051062;28;20136;-86
2021/11/09 14:19:04;;;;;;;0.10;0.10;;;;;;;;;;5036673;28;20036;-87
2021/11/09 14:21:34;;;;;;;0.32;0.32;;;;;;;;;;5053772;28;20111;-86
2021/11/09 14:24:20;;;;;;;0.10;0.10;;;;;;;;;;5059791;28;20460;-86
2021/11/09 14:26:48;;;;;;;0.25;0.25;;;;;;;;;;5062231;28;20063;-87
2021/11/09 14:29:19;;;;;;;0.10;0.10;;;;;;;;;;5047272;28;20029;-87
2021/11/09 14:31:56;;;;;;;0.38;0.30;;;;;;;;;;5062074;28;20501;-86
2021/11/09 14:34:23;;;;;;;0.10;0.10;;;;;;;;;;5060757;28;20386;-88
2021/11/09 14:36:50;;;;;;;0.52;0.52;;;;;;;;;;5059868;28;20113;-87
2021/11/09 14:39:18;;;;;;;0.85;0.85;;;;;;;;;;5060002;28;20183;-87
2021/11/09 14:45:25;;;;;;;0.30;0.30;;;;;;;;;;5048149;28;20043;-86
2021/11/09 14:47:55;;;;;;;0.70;0.68;;;;;;;;;;4972421;28;20094;-87
2021/11/09 14:50:38;;;;;;;0.10;0.10;;;;;;;;;;4982987;28;20045;-88
2021/11/09 14:53:05;;;;;;;0.13;0.13;;;;;;;;;;4966859;28;20022;-87
2021/11/09 14:55:41;;;;;;;0.40;0.40;;;;;;;;;;4971064;28;20050;-87
2021/11/09 14:58:23;;;;;;;2.65;1.70;;;;;;;;;;4972115;28;20026;-86
2021/11/09 15:00:50;;;;;;;0.22;0.15;;;;;;;;;;4972294;28;20049;-86
2021/11/09 15:03:16;;;;;;;;;;;;;;;;;;4972330;28;20078;-86
2021/11/09 15:05:43;;;;;;;;;;;;;;;;;;4971232;28;20044;-87
2021/11/09 15:08:36;;;;;;;;;;;;;;;;;;4967962;28;19910;-88
2021/11/09 15:11:16;;;;;;;;;;;;;;;;;;4980170;28;19916;-86
2021/11/09 15:25:14;;;;;;;;;;;;;;;;;;5001315;28;19916;-86
2021/11/09 15:30:28;;;;;;;;;;;;;;;;;;5000809;28;19913;-87
2021/11/09 15:32:55;;;;;;;;;;;;;;;;;;5001408;28;19913;-87
2021/11/09 15:35:26;;;;;;;;;;;;;;;;;;5001182;28;19913;-87
2021/11/09 15:40:21;;;;;;;;;;;;;;;;;;5000085;28;20382;-87
2021/11/09 15:42:47;;;;;;;;;;;;;;;;;;4985673;28;20580;-86
2021/11/09 15:45:13;;;;;;;;;;;;;;;;;;5000939;28;19925;-87
2021/11/09 15:47:39;;;;;;;;;;;;;;;;;;5000873;28;19920;-86
2021/11/09 15:50:05;;;;;;;;;;;;;;;;;;5005055;28;19906;-86
2021/11/09 15:52:31;;;;;;;;;;;;;;;;;;5010283;28;19909;-87
2021/11/09 15:54:57;;;;;;;;;;;;;;;;;;5016417;28;20012;-87
2021/11/09 15:57:23;;;;;;;;;;;;;;;;;;5018683;28;20735;-86
2021/11/09 15:59:49;;;;;;;;;;;;;;;;;;5019623;28;19913;-86
2021/11/09 16:02:15;;;;;;;;;;;;;;;;;;5029956;28;19919;-86
2021/11/09 16:04:43;;;;;;;;;;;;;;;;;;5060778;28;20645;-86
2021/11/09 16:07:09;;;;;;;;;;;;;;;;;;5058445;28;19919;-86
2021/11/09 16:09:36;;;;;;;;;;;;;;;;;;5058051;28;19912;-87
2021/11/09 16:12:02;;;;;;;;;;;;;;;;;;5057986;28;19917;-87
2021/11/09 16:14:28;;;;;;;;;;;;;;;;;;5061603;28;19919;-86
2021/11/09 16:16:54;;;;;;;;;;;;;;;;;;5042462;28;19943;-86
2021/11/09 16:19:20;;;;;;;;;;;;;;;;;;5058380;28;19916;-90
2021/11/09 16:21:47;;;;;;;;;;;;;;;;;;5062451;28;19958;-87
2021/11/09 16:24:14;;;;;;;;;;;;;;;;;;5052812;28;19916;-87
2021/11/09 16:26:41;;;;;;;;;;;;;;;;;;5047547;28;19939;-87
2021/11/09 16:29:07;;;;;;;;;;;;;;;;;;5055532;28;19916;-90
2021/11/09 16:31:33;;;;;;;;;;;;;;;;;;5065555;28;19919;-89
2021/11/09 16:33:59;;;;;;;;;;;;;;;;;;5055862;28;20625;-86
2021/11/09 16:36:27;;;;;;;;;;;;;;;;;;5058107;28;19923;-87
2021/11/09 16:39:01;;;;;;;;;;;;;;;;;;5054871;28;20399;-87
2021/11/09 16:41:32;;;;;;;;;;;;;;;;;;5046930;28;19916;-86
2021/11/09 16:44:01;;;;;;;;;;;;;;;;;;5046969;28;19969;-87
2021/11/09 16:56:52;;;;;;;;;;;;;;;;;;5046035;28;19962;-83
2021/11/09 18:20:10;;;;;;;;;;;;;;;;;;4983520;28;19914;-85
2021/11/09 18:22:36;;;;;;;;;;;;;;;;;;4985613;28;19913;-85
2021/11/09 18:25:02;;;;;;;;;;;;;;;;;;4986399;28;19914;-84
2021/11/09 18:27:28;;;;;;;;;;;;;;;;;;4985129;28;19960;-85
2021/11/09 18:29:54;;;;;;;;;;;;;;;;;;4986845;28;20032;-85
2021/11/09 18:32:19;;;;;;;;;;;;;;;;;;4970728;28;19920;-85
2021/11/09 18:34:46;;;;;;;;;;;;;;;;;;4966567;28;19925;-86
2021/11/09 18:37:12;;;;;;;;;;;;;;;;;;4982761;28;20016;-85
2021/11/09 18:39:38;;;;;;;;;;;;;;;;;;4983265;28;19944;-86
2021/11/09 18:42:04;;;;;;;;;;;;;;;;;;4985506;28;19949;-86
2021/11/09 18:44:30;;;;;;;;;;;;;;;;;;4981268;28;19914;-86
2021/11/09 18:46:56;;;;;;;;;;;;;;;;;;4980176;28;19967;-85
2021/11/09 18:49:22;;;;;;;;;;;;;;;;;;4981478;28;19914;-85
2021/11/09 18:51:47;;;;;;;;;;;;;;;;;;4984849;28;19909;-85
2021/11/09 18:54:14;;;;;;;;;;;;;;;;;;5019795;28;20658;-84
2021/11/09 18:56:39;;;;;;;;;;;;;;;;;;5048779;28;19935;-86
2021/11/09 18:59:05;;;;;;;;;;;;;;;;;;5049921;28;20332;-85
2021/11/09 19:01:32;;;;;;;;;;;;;;;;;;5049472;28;19912;-86
2021/11/09 19:03:58;;;;;;;;;;;;;;;;;;5050178;28;19920;-82
2021/11/09 19:06:24;;;;;;;;;;;;;;;;;;5055166;28;19926;-82
2021/11/09 19:08:49;;;;;;;;;;;;;;;;;;5050442;28;19944;-81
2021/11/09 19:11:15;;;;;;;;;;;;;;;;;;5046179;28;19923;-81
2021/11/09 19:13:41;;;;;;;;;;;;;;;;;;5049877;28;19908;-82
2021/11/09 19:16:07;;;;;;;;;;;;;;;;;;5057474;28;20276;-82
2021/11/09 19:18:33;;;;;;;;;;;;;;;;;;5051311;28;19912;-81
2021/11/09 19:20:59;;;;;;;;;;;;;;;;;;5048262;28;19912;-81
2021/11/09 19:23:25;;;;;;;;;;;;;;;;;;5059777;28;19916;-81
2021/11/09 19:25:53;;;;;;;;;;;;;;;;;;5053678;28;19931;-83